Latest Weather Observations for Emerald

IDQ60801

Issued at 8:52 am EST Monday 3 October 2022 (issued every 10 minutes, with the page automatically refreshed every 10 minutes)

About weather observations | Map of weather stations | Latest weather observations for QLD | Other Formats
Station Details ID: 035264 Name: EMERALD AIRPORT Lat: -23.57 Lon: 148.18 Height: 189.4 m
Data from the previous 72 hours. | See also: Recent months at Emerald
Date/Time
EST
Temp
°C
App
Temp
°C
Dew
Point
°C
Rel
Hum
%
Delta-T
°C
Wind Press
QNH
hPa
Press
MSL
hPa
Rain since
9am
mm
Dir  Spd
km/h
Gust
km/h
Spd
kts
Gust
kts
03/08:30am 18.7 17.7 18.0 96 0.4 E 20 24 11 13 1017.9 1017.0 0.6
03/08:00am 18.9 18.9 18.9 100 0.0 E 17 26 9 14 1017.7 1016.8 0.6
03/07:30am 18.5 18.7 18.5 100 0.0 ESE 15 19 8 10 1017.6 1016.7 0.6
03/07:00am 18.2 18.2 18.2 100 0.0 E 15 19 8 10 1017.0 1016.1 0.6
03/06:30am 18.1 17.7 18.1 100 0.0 ESE 17 22 9 12 1016.6 1015.6 0.6
03/06:24am 18.1 17.7 18.1 100 0.0 ESE 17 26 9 14 1016.7 1015.7 0.6
03/06:00am 18.7 18.6 18.7 100 0.0 ESE 17 20 9 11 1016.4 1015.4 0.6
03/05:30am 19.0 20.2 19.0 100 0.0 ESE 11 15 6 8 1015.8 1014.8 0.4
03/05:04am 19.0 20.5 19.0 100 0.0 ESE 9 15 5 8 1015.4 1014.4 0.4
03/05:00am 19.0 20.5 19.0 100 0.0 ESE 9 15 5 8 1015.4 1014.4 0.4
03/04:30am 19.0 20.5 19.0 100 0.0 ESE 9 13 5 7 1015.3 1014.3 0.4
03/04:11am 19.1 20.7 19.1 100 0.0 SE 9 13 5 7 1015.0 1014.0 0.4
03/04:00am 19.0 20.2 19.0 100 0.0 ESE 11 15 6 8 1014.9 1013.9 0.4
03/03:30am 19.6 18.8 17.9 90 1.1 E 19 24 10 13 1014.6 1013.6 0.0
03/03:00am 19.9 18.9 17.5 86 1.5 E 19 26 10 14 1014.4 1013.4 0.0
03/02:30am 20.1 18.8 17.3 84 1.7 E 20 26 11 14 1014.7 1013.7 0.0
03/02:00am 20.2 18.9 17.2 83 1.8 E 20 28 11 15 1014.6 1013.6 0.0
03/01:30am 20.3 18.6 17.1 82 2.0 E 22 33 12 18 1014.6 1013.6 0.0
03/01:00am 20.3 19.1 17.1 82 2.0 ESE 19 30 10 16 1014.7 1013.7 0.0
03/12:30am 20.1 19.2 16.9 82 2.0 ESE 17 26 9 14 1014.7 1013.7 0.0
03/12:00am 20.4 18.4 16.4 78 2.4 E 22 28 12 15 1014.5 1013.5 0.0
 
Date/Time
EST
Temp
°C
App
Temp
°C
Dew
Point
°C
Rel
Hum
%
Delta-T
°C
Wind Press
QNH
hPa
Press
MSL
hPa
Rain since
9am
mm
Dir  Spd
km/h
Gust
km/h
Spd
kts
Gust
kts
02/11:30pm 20.9 19.1 16.1 74 2.9 E 20 32 11 17 1014.6 1013.6 0.0
02/11:00pm 21.3 19.9 16.5 74 2.9 E 19 24 10 13 1014.4 1013.4 0.0
02/10:30pm 21.8 20.3 16.3 71 3.4 E 19 24 10 13 1014.3 1013.3 0.0
02/10:00pm 21.7 19.8 15.3 67 3.8 ESE 19 24 10 13 1014.0 1013.1 0.0
02/09:30pm 22.3 20.2 14.7 62 4.5 SE 19 22 10 12 1013.8 1012.9 0.0
02/09:00pm 22.3 19.9 13.9 59 4.9 SE 19 26 10 14 1013.1 1012.2 0.0
02/08:30pm 23.1 21.0 13.6 55 5.6 SSE 17 20 9 11 1012.8 1011.9 0.0
02/08:00pm 23.9 22.6 13.7 52 6.0 SSE 13 15 7 8 1012.3 1011.4 0.0
02/07:30pm 23.2 23.0 13.1 53 5.9 ENE 6 7 3 4 1011.8 1010.8 0.0
02/07:00pm 24.7 23.8 12.6 47 7.0 NE 9 11 5 6 1011.5 1010.5 0.0
02/06:30pm 25.5 24.6 12.7 45 7.5 NE 9 11 5 6 1011.1 1010.1 0.0
02/06:00pm 26.1 25.6 12.5 42 7.9 NE 7 9 4 5 1010.9 1009.9 0.0
02/05:30pm 27.3 26.6 12.1 39 8.9 NE 7 9 4 5 1010.6 1009.6 0.0
02/05:00pm 28.9 26.6 10.6 32 10.5 NNW 13 17 7 9 1010.2 1009.2 0.0
02/04:30pm 29.1 27.3 10.7 32 10.6 NW 11 17 6 9 1009.8 1008.8 0.0
02/04:00pm 29.5 28.2 11.1 32 10.7 NNE 9 17 5 9 1009.7 1008.7 0.0
02/03:30pm 28.2 27.9 11.3 35 9.8 NE 4 11 2 6 1009.9 1008.9 0.0
02/03:00pm 28.4 28.4 12.3 37 9.5 NW 4 11 2 6 1010.0 1009.0 0.0
02/02:30pm 28.0 26.7 11.1 35 9.7 N 9 13 5 7 1010.3 1009.3 0.0
02/02:00pm 28.5 27.4 12.0 36 9.7 WNW 9 17 5 9 1010.6 1009.6 0.0
02/01:30pm 28.7 27.3 12.2 36 9.7 NW 11 17 6 9 1010.9 1009.9 0.0
02/01:00pm 28.8 26.3 12.2 35 9.8 NW 17 26 9 14 1011.3 1010.3 0.0
02/12:30pm 28.9 27.8 11.9 35 9.9 NNW 9 20 5 11 1011.9 1010.9 0.0
02/12:00pm 27.6 25.8 13.2 41 8.6 NNE 15 24 8 13 1012.4 1011.5 0.0
02/11:30am 26.8 25.4 13.5 44 7.9 NNW 13 20 7 11 1013.0 1012.1 0.0
02/11:00am 26.0 24.7 14.8 50 6.8 NNE 15 22 8 12 1013.5 1012.6 0.0
02/10:30am 25.1 24.9 14.6 52 6.3 N 9 17 5 9 1013.8 1012.9 0.0
02/10:00am 24.5 24.2 15.4 57 5.5 N 11 19 6 10 1014.3 1013.3 0.0
02/09:30am 23.1 21.8 14.7 59 5.0 N 15 24 8 13 1014.5 1013.5 0.0
02/09:00am 22.1 21.1 14.5 62 4.5 NNW 13 20 7 11 1014.9 1013.9 0.0
02/08:30am 21.3 20.7 14.5 65 4.0 NNE 11 19 6 10 1014.8 1013.8 0.0
02/08:00am 20.6 19.3 14.7 69 3.5 ENE 15 19 8 10 1014.6 1013.6 0.0
02/07:30am 18.5 17.1 15.6 83 1.7 E 17 20 9 11 1014.5 1013.5 0.0
02/07:00am 16.2 15.6 14.7 91 0.9 ESE 11 13 6 7 1014.4 1013.4 0.0
02/06:30am 15.0 14.5 13.9 93 0.6 ESE 9 13 5 7 1014.3 1013.3 0.0
02/06:00am 14.7 14.1 13.6 93 0.6 SE 9 11 5 6 1014.5 1013.5 0.0
02/05:30am 14.5 13.8 13.2 92 0.7 SSE 9 11 5 6 1013.9 1013.0 0.0
02/05:00am 14.4 13.3 13.0 91 0.8 SSE 11 15 6 8 1013.7 1012.8 0.0
02/04:30am 13.9 12.6 12.6 92 0.7 SSE 11 11 6 6 1013.3 1012.4 0.0
02/04:00am 13.5 13.2 11.6 88 1.0 SSE 4 11 2 6 1013.1 1012.2 0.0
02/03:30am 14.6 14.9 12.3 86 1.3 ESE 2 7 1 4 1012.4 1011.5 0.0
02/03:00am 15.3 16.1 12.4 83 1.6 CALM 0 0 0 0 1012.3 1011.4 0.0
02/02:30am 15.0 14.6 12.3 84 1.5 ESE 6 9 3 5 1012.4 1011.5 0.0
02/02:00am 15.5 15.5 12.4 82 1.7 ENE 4 7 2 4 1012.3 1011.4 0.0
02/01:30am 15.8 15.3 12.0 78 2.1 NE 6 7 3 4 1012.4 1011.5 0.0
02/01:00am 17.3 16.6 12.0 71 2.9 NNE 7 9 4 5 1012.6 1011.7 0.0
02/12:30am 17.3 16.8 12.2 72 2.8 NNE 6 7 3 4 1012.8 1011.9 0.0
02/12:00am 17.9 17.8 12.1 69 3.2 N 4 7 2 4 1013.2 1012.3 0.0
 
Date/Time
EST
Temp
°C
App
Temp
°C
Dew
Point
°C
Rel
Hum
%
Delta-T
°C
Wind Press
QNH
hPa
Press
MSL
hPa
Rain since
9am
mm
Dir  Spd
km/h
Gust
km/h
Spd
kts
Gust
kts
01/11:30pm 18.7 17.3 12.2 66 3.6 N 11 13 6 7 1013.3 1012.4 0.0
01/11:00pm 19.0 17.3 12.5 66 3.7 N 13 17 7 9 1013.5 1012.6 0.0
01/10:30pm 19.6 17.5 12.4 63 4.1 N 15 19 8 10 1013.7 1012.8 0.0
01/10:00pm 19.9 17.7 12.2 61 4.3 NNE 15 19 8 10 1013.8 1012.9 0.0
01/09:30pm 20.2 18.3 11.9 59 4.7 NNE 13 17 7 9 1013.7 1012.8 0.0
01/09:00pm 20.5 18.9 11.7 57 4.9 NNE 11 17 6 9 1013.8 1012.9 0.0
01/08:30pm 20.7 20.0 11.3 55 5.2 NE 6 7 3 4 1013.6 1012.7 0.0
01/08:00pm 21.3 20.0 11.1 52 5.7 NE 9 13 5 7 1013.2 1012.3 0.0
01/07:30pm 21.7 20.3 10.8 50 6.0 NE 9 11 5 6 1013.0 1012.1 0.0
01/07:00pm 22.9 21.4 10.7 46 6.8 NNE 9 13 5 7 1012.9 1012.0 0.0
01/06:30pm 24.0 21.6 9.9 41 7.8 NE 13 15 7 8 1012.5 1011.6 0.0
01/06:00pm 25.0 22.4 9.3 37 8.6 ENE 13 15 7 8 1012.4 1011.5 0.0
01/05:30pm 26.5 23.8 8.9 33 9.7 ENE 13 19 7 10 1012.2 1011.2 0.0
01/05:00pm 27.3 25.3 8.7 31 10.2 N 9 15 5 8 1012.0 1011.0 0.0
01/04:30pm 28.0 24.6 7.8 28 11.0 N 15 20 8 11 1012.0 1011.0 0.0
01/04:00pm 27.3 25.5 7.2 28 10.8 NE 6 9 3 5 1011.8 1010.8 0.0
01/03:30pm 28.2 25.5 7.4 27 11.3 N 11 20 6 11 1012.0 1011.0 0.0
01/03:00pm 28.3 26.2 9.6 31 10.5 ENE 11 20 6 11 1012.3 1011.4 0.0
01/02:30pm 27.7 25.9 8.1 29 10.7 NE 7 13 4 7 1012.5 1011.6 0.0
01/02:00pm 27.8 25.7 9.6 32 10.2 ESE 11 19 6 10 1012.9 1012.0 0.0
01/01:30pm 27.5 24.8 8.9 31 10.3 E 13 20 7 11 1013.4 1012.5 0.0
01/01:00pm 28.0 25.9 9.8 32 10.2 N 11 19 6 10 1014.0 1013.1 0.0
01/12:30pm 27.0 24.5 11.1 37 9.1 NNW 15 24 8 13 1014.7 1013.7 0.0
01/12:00pm 26.7 24.3 10.0 35 9.4 N 13 22 7 12 1015.2 1014.2 0.0
01/11:30am 26.0 24.4 11.7 41 8.2 NNE 11 24 6 13 1015.7 1014.7 0.0
01/11:00am 25.6 24.2 12.1 43 7.8 NE 11 20 6 11 1016.2 1015.2 0.0
01/10:30am 24.9 23.2 11.1 42 7.8 NE 11 22 6 12 1016.3 1015.3 0.0
01/10:00am 24.6 23.9 11.9 45 7.3 NE 7 17 4 9 1016.7 1015.7 0.0
01/09:30am 23.4 22.4 12.4 50 6.3 E 9 13 5 7 1017.0 1016.3 0.0
01/09:00am 21.8 20.9 12.6 56 5.3 E 9 15 5 8 1017.2 1016.5 0.0
01/08:30am 21.0 19.8 12.7 59 4.7 ESE 11 19 6 10 1017.5 1016.8 0.0
01/08:00am 19.4 17.1 11.7 61 4.3 E 15 20 8 11 1017.3 1016.6 0.0
01/07:30am 18.5 15.9 10.8 61 4.2 SE 15 19 8 10 1017.2 1016.5 0.0
01/07:00am 17.1 14.9 10.7 66 3.4 SE 13 17 7 9 1016.8 1016.1 0.0
01/06:30am 15.3 13.3 10.3 72 2.6 SE 11 15 6 8 1016.3 1015.6 0.0
01/06:00am 14.1 11.6 9.7 75 2.3 SSE 13 17 7 9 1015.8 1015.1 0.0
01/05:30am 14.8 11.9 9.8 72 2.6 SSE 15 19 8 10 1015.5 1014.8 0.0
01/05:00am 14.5 13.4 9.9 74 2.4 SE 6 11 3 6 1015.2 1014.5 0.0
01/04:30am 14.8 13.7 10.0 73 2.5 SSE 6 7 3 4 1015.0 1014.3 0.0
01/04:00am 15.1 12.6 9.7 70 2.8 S 13 15 7 8 1014.7 1014.0 0.0
01/03:30am 15.1 12.6 9.7 70 2.8 S 13 15 7 8 1014.8 1014.1 0.0
01/03:00am 15.7 13.2 9.8 68 3.1 SSE 13 15 7 8 1014.9 1014.2 0.0
01/02:30am 15.6 12.8 9.9 69 3.0 SE 15 17 8 9 1014.9 1014.2 0.0
01/02:00am 16.2 13.7 9.6 65 3.5 SSE 13 17 7 9 1015.1 1014.4 0.0
01/01:30am 16.0 13.5 9.7 66 3.3 SSE 13 15 7 8 1015.3 1014.6 0.0
01/01:00am 16.1 13.9 9.5 65 3.5 S 11 13 6 7 1015.6 1014.9 0.0
01/12:30am 16.6 14.4 9.3 62 3.8 SSE 11 13 6 7 1015.8 1015.1 0.0
01/12:00am 17.5 14.9 9.2 58 4.4 SSE 13 15 7 8 1016.0 1015.3 0.0
 
Date/Time
EST
Temp
°C
App
Temp
°C
Dew
Point
°C
Rel
Hum
%
Delta-T
°C
Wind Press
QNH
hPa
Press
MSL
hPa
Rain since
9am
mm
Dir  Spd
km/h
Gust
km/h
Spd
kts
Gust
kts
30/11:30pm 17.0 15.2 9.4 61 4.0 SE 9 11 5 6 1016.0 1015.3 0.0
30/11:00pm 18.3 16.4 9.1 55 4.8 SE 9 15 5 8 1015.7 1015.0 0.0
30/10:30pm 18.6 16.2 8.8 53 5.1 SSE 11 13 6 7 1015.8 1015.1 0.0
30/10:00pm 20.2 17.4 8.5 47 6.2 SSE 13 17 7 9 1015.8 1015.1 0.0
30/09:30pm 19.7 17.0 9.0 50 5.7 SSE 13 15 7 8 1016.4 1015.7 0.0
30/09:14pm 19.7 17.3 8.7 49 5.8 S 11 13 6 7 1016.6 1015.9 0.0
30/09:00pm 19.8 18.5 10.0 53 5.3 SSW 7 9 4 5 1016.5 1015.8 0.0
30/08:30pm 20.6 19.0 8.9 47 6.2 S 7 9 4 5 1016.2 1015.5 0.0
30/08:19pm 20.8 18.7 8.4 45 6.5 S 9 9 5 5 1016.1 1015.4 0.0
30/08:13pm 20.3 18.4 8.9 48 6.1 S 9 9 5 5 1016.0 1015.3 0.0
30/08:02pm 20.2 18.2 8.8 48 6.0 S 9 11 5 6 1015.9 1015.2 0.0
30/08:00pm 20.1 18.3 9.4 50 5.7 S 9 11 5 6 1015.8 1015.1 0.0
30/07:30pm 20.7 18.9 8.0 44 6.7 SE 7 11 4 6 1015.5 1014.8 0.0
30/07:00pm 20.8 18.4 8.8 46 6.4 SE 11 13 6 7 1015.3 1014.6 0.0
30/06:30pm 21.4 18.2 8.3 43 6.9 ESE 15 17 8 9 1014.9 1014.2 0.0
30/06:00pm 23.2 20.7 8.1 38 8.0 ESE 11 13 6 7 1015.0 1014.3 0.0
30/05:30pm 26.1 23.0 7.2 30 10.1 SE 13 15 7 8 1014.7 1014.0 0.0
30/05:00pm 26.7 22.9 5.6 26 11.0 SE 15 20 8 11 1014.5 1013.8 0.0
30/04:30pm 27.4 24.4 6.2 26 11.2 SSE 11 19 6 10 1014.5 1013.8 0.0
30/04:00pm 27.6 25.5 5.8 25 11.4 SE 6 20 3 11 1014.6 1013.9 0.0
30/03:30pm 27.4 23.1 5.1 24 11.5 E 17 26 9 14 1014.6 1013.9 0.0
30/03:00pm 27.7 23.3 4.7 23 11.8 ESE 17 22 9 12 1014.8 1014.1 0.0
30/02:30pm 27.0 22.9 4.1 23 11.6 SSE 15 26 8 14 1015.1 1014.4 0.0
30/02:00pm 28.1 25.7 6.8 26 11.4 ESE 9 30 5 16 1015.7 1015.0 0.0
30/01:30pm 26.5 23.0 5.5 26 10.9 ESE 13 20 7 11 1016.2 1015.5 0.0
30/01:00pm 26.6 23.6 6.1 27 10.7 SSW 11 22 6 12 1016.7 1016.0 0.0
30/12:30pm 25.9 22.0 5.5 27 10.5 SSW 15 24 8 13 1017.4 1016.7 0.0
30/12:00pm 25.2 22.0 6.9 31 9.6 SSE 13 30 7 16 1018.1 1017.4 0.0
30/11:30am 24.8 21.9 8.3 35 8.9 SSE 13 26 7 14 1018.8 1018.1 0.0
30/11:00am 24.0 19.7 7.2 34 8.8 SSE 19 26 10 14 1019.4 1018.8 0.0
30/10:30am 23.5 20.3 8.4 38 8.1 SSE 15 28 8 15 1019.7 1019.0 0.0
30/10:00am 23.2 18.6 8.1 38 8.0 SSE 22 30 12 16 1019.9 1019.2 0.0
30/09:30am 22.3 18.1 8.4 41 7.4 SSE 20 30 11 16 1019.9 1019.2 0.0
30/09:00am 20.8 17.0 7.4 42 6.9 SE 17 24 9 13 1020.2 1019.5 0.0

Other formats

Comma delimited format used in spreadsheet applications
http://www.bom.gov.au/fwo/IDQ60801/IDQ60801.94363.axf

JavaScript Object Notation format (JSON) in row-major order
http://www.bom.gov.au/fwo/IDQ60801/IDQ60801.94363.json

Data quality

Most of these data are generated automatically and are frequently updated. Quality checks on data are not normally performed. It is possible for incorrect values to appear. Refer to information at About Latest Weather Observations and please check the disclaimer before using these data.